sensor_id;sensor_type;location;lat;lon;timestamp;P1;durP1;ratioP1;P2;durP2;ratioP2
67442;SDS011;54311;51.726;5.154;2023-03-15T00:00:47;5.28;;;4.82;;
67442;SDS011;54311;51.726;5.154;2023-03-15T00:03:13;4.68;;;4.38;;
67442;SDS011;54311;51.726;5.154;2023-03-15T00:05:42;5.15;;;4.95;;
67442;SDS011;54311;51.726;5.154;2023-03-15T00:08:08;5.35;;;4.93;;
67442;SDS011;54311;51.726;5.154;2023-03-15T00:10:38;5.07;;;4.70;;
67442;SDS011;54311;51.726;5.154;2023-03-15T00:13:04;5.28;;;4.93;;
67442;SDS011;54311;51.726;5.154;2023-03-15T00:15:30;4.80;;;4.50;;
67442;SDS011;54311;51.726;5.154;2023-03-15T00:17:55;5.50;;;5.10;;
67442;SDS011;54311;51.726;5.154;2023-03-15T00:20:20;4.95;;;4.53;;
67442;SDS011;54311;51.726;5.154;2023-03-15T00:22:45;5.60;;;5.20;;
67442;SDS011;54311;51.726;5.154;2023-03-15T00:25:11;5.07;;;4.78;;
67442;SDS011;54311;51.726;5.154;2023-03-15T00:27:36;5.22;;;4.88;;
67442;SDS011;54311;51.726;5.154;2023-03-15T00:30:02;5.03;;;4.82;;
67442;SDS011;54311;51.726;5.154;2023-03-15T00:32:27;4.80;;;4.60;;
67442;SDS011;54311;51.726;5.154;2023-03-15T00:34:53;5.63;;;5.18;;
67442;SDS011;54311;51.726;5.154;2023-03-15T00:37:19;6.20;;;5.90;;
67442;SDS011;54311;51.726;5.154;2023-03-15T00:39:45;6.85;;;6.25;;
67442;SDS011;54311;51.726;5.154;2023-03-15T00:42:12;7.10;;;6.60;;
67442;SDS011;54311;51.726;5.154;2023-03-15T00:44:41;7.35;;;6.82;;
67442;SDS011;54311;51.726;5.154;2023-03-15T00:47:10;7.22;;;6.57;;
67442;SDS011;54311;51.726;5.154;2023-03-15T00:49:37;8.40;;;7.70;;
67442;SDS011;54311;51.726;5.154;2023-03-15T00:52:03;7.20;;;6.80;;
67442;SDS011;54311;51.726;5.154;2023-03-15T00:54:28;8.27;;;7.50;;
67442;SDS011;54311;51.726;5.154;2023-03-15T00:56:54;9.48;;;8.52;;
67442;SDS011;54311;51.726;5.154;2023-03-15T00:59:19;8.25;;;7.75;;
67442;SDS011;54311;51.726;5.154;2023-03-15T01:01:46;7.32;;;6.65;;
67442;SDS011;54311;51.726;5.154;2023-03-15T01:04:11;10.05;;;6.68;;
67442;SDS011;54311;51.726;5.154;2023-03-15T01:06:37;7.15;;;6.55;;
67442;SDS011;54311;51.726;5.154;2023-03-15T01:09:03;7.57;;;6.88;;
67442;SDS011;54311;51.726;5.154;2023-03-15T01:11:28;7.15;;;6.45;;
67442;SDS011;54311;51.726;5.154;2023-03-15T01:13:55;7.05;;;6.53;;
67442;SDS011;54311;51.726;5.154;2023-03-15T01:16:22;7.35;;;6.78;;
67442;SDS011;54311;51.726;5.154;2023-03-15T01:18:47;6.72;;;6.22;;
67442;SDS011;54311;51.726;5.154;2023-03-15T01:21:15;6.60;;;6.05;;
67442;SDS011;54311;51.726;5.154;2023-03-15T01:23:41;6.28;;;5.97;;
67442;SDS011;54311;51.726;5.154;2023-03-15T01:26:07;6.55;;;6.15;;
67442;SDS011;54311;51.726;5.154;2023-03-15T01:28:34;6.47;;;6.18;;
67442;SDS011;54311;51.726;5.154;2023-03-15T01:30:59;6.25;;;5.85;;
67442;SDS011;54311;51.726;5.154;2023-03-15T01:33:25;6.18;;;5.93;;
67442;SDS011;54311;51.726;5.154;2023-03-15T01:36:00;6.32;;;5.88;;
67442;SDS011;54311;51.726;5.154;2023-03-15T01:38:29;6.95;;;6.55;;
67442;SDS011;54311;51.726;5.154;2023-03-15T01:40:55;7.15;;;6.72;;
67442;SDS011;54311;51.726;5.154;2023-03-15T01:43:21;6.97;;;6.55;;
67442;SDS011;54311;51.726;5.154;2023-03-15T01:45:51;6.90;;;6.60;;
67442;SDS011;54311;51.726;5.154;2023-03-15T01:50:59;6.55;;;6.25;;
67442;SDS011;54311;51.726;5.154;2023-03-15T01:53:26;6.47;;;6.05;;
67442;SDS011;54311;51.726;5.154;2023-03-15T01:55:54;5.90;;;5.60;;
67442;SDS011;54311;51.726;5.154;2023-03-15T01:58:20;6.50;;;6.18;;
67442;SDS011;54311;51.726;5.154;2023-03-15T02:00:48;7.13;;;6.60;;
67442;SDS011;54311;51.726;5.154;2023-03-15T02:03:38;6.10;;;5.72;;
67442;SDS011;54311;51.726;5.154;2023-03-15T02:06:11;6.00;;;5.60;;
67442;SDS011;54311;51.726;5.154;2023-03-15T02:08:42;6.68;;;6.38;;
67442;SDS011;54311;51.726;5.154;2023-03-15T02:11:10;6.85;;;6.32;;
67442;SDS011;54311;51.726;5.154;2023-03-15T02:13:37;7.03;;;6.43;;
67442;SDS011;54311;51.726;5.154;2023-03-15T02:16:02;7.38;;;6.85;;
67442;SDS011;54311;51.726;5.154;2023-03-15T02:18:30;6.47;;;6.18;;
67442;SDS011;54311;51.726;5.154;2023-03-15T02:28:36;7.07;;;6.57;;
67442;SDS011;54311;51.726;5.154;2023-03-15T02:31:02;6.90;;;6.53;;
67442;SDS011;54311;51.726;5.154;2023-03-15T02:33:28;6.78;;;6.32;;
67442;SDS011;54311;51.726;5.154;2023-03-15T02:35:56;7.70;;;7.05;;
67442;SDS011;54311;51.726;5.154;2023-03-15T02:38:31;7.15;;;6.55;;
67442;SDS011;54311;51.726;5.154;2023-03-15T02:40:56;7.03;;;6.63;;
67442;SDS011;54311;51.726;5.154;2023-03-15T02:43:23;7.25;;;6.85;;
67442;SDS011;54311;51.726;5.154;2023-03-15T02:45:49;8.00;;;7.45;;
67442;SDS011;54311;51.726;5.154;2023-03-15T02:48:15;8.05;;;7.45;;
67442;SDS011;54311;51.726;5.154;2023-03-15T02:50:40;7.20;;;6.75;;
67442;SDS011;54311;51.726;5.154;2023-03-15T02:53:06;7.40;;;6.88;;
67442;SDS011;54311;51.726;5.154;2023-03-15T02:55:32;7.20;;;6.82;;
67442;SDS011;54311;51.726;5.154;2023-03-15T02:57:58;7.53;;;6.82;;
67442;SDS011;54311;51.726;5.154;2023-03-15T03:00:24;7.05;;;6.55;;
67442;SDS011;54311;51.726;5.154;2023-03-15T03:02:50;7.22;;;6.78;;
67442;SDS011;54311;51.726;5.154;2023-03-15T03:05:16;6.72;;;6.32;;
67442;SDS011;54311;51.726;5.154;2023-03-15T03:07:41;6.95;;;6.65;;
67442;SDS011;54311;51.726;5.154;2023-03-15T03:10:07;7.85;;;7.30;;
67442;SDS011;54311;51.726;5.154;2023-03-15T03:12:33;7.38;;;6.88;;
67442;SDS011;54311;51.726;5.154;2023-03-15T03:14:58;7.40;;;7.00;;
67442;SDS011;54311;51.726;5.154;2023-03-15T03:17:23;7.90;;;7.25;;
67442;SDS011;54311;51.726;5.154;2023-03-15T03:19:49;7.10;;;6.65;;
67442;SDS011;54311;51.726;5.154;2023-03-15T03:22:15;7.10;;;6.60;;
67442;SDS011;54311;51.726;5.154;2023-03-15T03:24:41;8.07;;;7.43;;
67442;SDS011;54311;51.726;5.154;2023-03-15T03:27:10;7.65;;;7.07;;
67442;SDS011;54311;51.726;5.154;2023-03-15T03:29:38;7.57;;;6.97;;
67442;SDS011;54311;51.726;5.154;2023-03-15T03:32:05;7.43;;;6.93;;
67442;SDS011;54311;51.726;5.154;2023-03-15T03:34:30;8.43;;;7.72;;
67442;SDS011;54311;51.726;5.154;2023-03-15T03:36:56;7.80;;;7.10;;
67442;SDS011;54311;51.726;5.154;2023-03-15T03:39:21;7.75;;;7.25;;
67442;SDS011;54311;51.726;5.154;2023-03-15T03:41:47;7.35;;;6.95;;
67442;SDS011;54311;51.726;5.154;2023-03-15T03:44:12;8.25;;;7.28;;
67442;SDS011;54311;51.726;5.154;2023-03-15T03:46:37;7.57;;;7.15;;
67442;SDS011;54311;51.726;5.154;2023-03-15T03:49:03;7.40;;;6.93;;
67442;SDS011;54311;51.726;5.154;2023-03-15T03:51:28;7.28;;;6.88;;
67442;SDS011;54311;51.726;5.154;2023-03-15T03:53:54;10.70;;;7.63;;
67442;SDS011;54311;51.726;5.154;2023-03-15T03:56:20;7.43;;;6.93;;
67442;SDS011;54311;51.726;5.154;2023-03-15T03:58:45;7.75;;;7.22;;
67442;SDS011;54311;51.726;5.154;2023-03-15T04:01:10;8.00;;;7.32;;
67442;SDS011;54311;51.726;5.154;2023-03-15T04:03:36;7.50;;;6.90;;
67442;SDS011;54311;51.726;5.154;2023-03-15T04:06:01;8.60;;;7.70;;
67442;SDS011;54311;51.726;5.154;2023-03-15T04:08:29;7.80;;;7.18;;
67442;SDS011;54311;51.726;5.154;2023-03-15T04:10:55;8.15;;;7.40;;
67442;SDS011;54311;51.726;5.154;2023-03-15T04:13:21;9.18;;;8.38;;
67442;SDS011;54311;51.726;5.154;2023-03-15T04:15:47;8.68;;;8.07;;
67442;SDS011;54311;51.726;5.154;2023-03-15T04:18:13;8.25;;;7.75;;
67442;SDS011;54311;51.726;5.154;2023-03-15T04:20:39;7.70;;;7.18;;
67442;SDS011;54311;51.726;5.154;2023-03-15T04:23:11;8.35;;;7.72;;
67442;SDS011;54311;51.726;5.154;2023-03-15T04:25:37;7.53;;;7.13;;
67442;SDS011;54311;51.726;5.154;2023-03-15T04:28:03;9.00;;;8.23;;
67442;SDS011;54311;51.726;5.154;2023-03-15T04:30:28;8.25;;;7.63;;
67442;SDS011;54311;51.726;5.154;2023-03-15T04:32:55;7.90;;;7.45;;
67442;SDS011;54311;51.726;5.154;2023-03-15T04:35:27;8.43;;;7.82;;
67442;SDS011;54311;51.726;5.154;2023-03-15T04:37:54;7.70;;;7.20;;
67442;SDS011;54311;51.726;5.154;2023-03-15T04:40:20;8.13;;;7.22;;
67442;SDS011;54311;51.726;5.154;2023-03-15T04:42:48;8.13;;;7.53;;
67442;SDS011;54311;51.726;5.154;2023-03-15T04:45:14;7.90;;;7.15;;
67442;SDS011;54311;51.726;5.154;2023-03-15T04:47:40;8.82;;;7.95;;
67442;SDS011;54311;51.726;5.154;2023-03-15T04:50:05;7.65;;;7.25;;
67442;SDS011;54311;51.726;5.154;2023-03-15T04:52:31;8.70;;;8.05;;
67442;SDS011;54311;51.726;5.154;2023-03-15T04:54:56;7.68;;;7.10;;
67442;SDS011;54311;51.726;5.154;2023-03-15T04:57:21;8.05;;;7.35;;
67442;SDS011;54311;51.726;5.154;2023-03-15T04:59:47;8.18;;;7.65;;
67442;SDS011;54311;51.726;5.154;2023-03-15T05:02:12;8.70;;;7.95;;
67442;SDS011;54311;51.726;5.154;2023-03-15T05:04:38;8.18;;;7.65;;
67442;SDS011;54311;51.726;5.154;2023-03-15T05:07:03;8.55;;;7.93;;
67442;SDS011;54311;51.726;5.154;2023-03-15T05:09:28;9.43;;;8.73;;
67442;SDS011;54311;51.726;5.154;2023-03-15T05:11:54;9.15;;;8.48;;
67442;SDS011;54311;51.726;5.154;2023-03-15T05:14:19;9.55;;;8.95;;
67442;SDS011;54311;51.726;5.154;2023-03-15T05:16:44;9.80;;;9.10;;
67442;SDS011;54311;51.726;5.154;2023-03-15T05:19:12;10.15;;;9.23;;
67442;SDS011;54311;51.726;5.154;2023-03-15T05:21:37;10.38;;;9.35;;
67442;SDS011;54311;51.726;5.154;2023-03-15T05:24:02;10.48;;;9.48;;
67442;SDS011;54311;51.726;5.154;2023-03-15T05:26:28;10.07;;;9.18;;
67442;SDS011;54311;51.726;5.154;2023-03-15T05:28:53;10.05;;;9.15;;
67442;SDS011;54311;51.726;5.154;2023-03-15T05:31:19;9.85;;;9.05;;
67442;SDS011;54311;51.726;5.154;2023-03-15T05:33:44;11.45;;;10.30;;
67442;SDS011;54311;51.726;5.154;2023-03-15T05:36:13;11.40;;;10.20;;
67442;SDS011;54311;51.726;5.154;2023-03-15T05:38:39;10.35;;;9.65;;
67442;SDS011;54311;51.726;5.154;2023-03-15T05:41:06;11.15;;;10.20;;
67442;SDS011;54311;51.726;5.154;2023-03-15T05:43:32;11.20;;;9.88;;
67442;SDS011;54311;51.726;5.154;2023-03-15T05:45:57;11.65;;;10.55;;
67442;SDS011;54311;51.726;5.154;2023-03-15T05:48:23;11.63;;;10.50;;
67442;SDS011;54311;51.726;5.154;2023-03-15T05:50:48;12.57;;;11.30;;
67442;SDS011;54311;51.726;5.154;2023-03-15T05:53:13;13.52;;;12.13;;
67442;SDS011;54311;51.726;5.154;2023-03-15T05:55:39;12.70;;;11.60;;
67442;SDS011;54311;51.726;5.154;2023-03-15T05:58:04;11.23;;;10.35;;
67442;SDS011;54311;51.726;5.154;2023-03-15T06:00:30;12.45;;;11.30;;
67442;SDS011;54311;51.726;5.154;2023-03-15T06:02:56;12.13;;;10.93;;
67442;SDS011;54311;51.726;5.154;2023-03-15T06:05:21;12.07;;;10.98;;
67442;SDS011;54311;51.726;5.154;2023-03-15T06:07:46;14.05;;;12.77;;
67442;SDS011;54311;51.726;5.154;2023-03-15T06:10:12;13.25;;;11.63;;
67442;SDS011;54311;51.726;5.154;2023-03-15T06:12:38;13.15;;;11.90;;
67442;SDS011;54311;51.726;5.154;2023-03-15T06:15:03;13.85;;;11.52;;
67442;SDS011;54311;51.726;5.154;2023-03-15T06:17:29;14.10;;;12.23;;
67442;SDS011;54311;51.726;5.154;2023-03-15T06:19:54;11.45;;;10.27;;
67442;SDS011;54311;51.726;5.154;2023-03-15T06:22:20;12.43;;;11.25;;
67442;SDS011;54311;51.726;5.154;2023-03-15T06:24:45;12.02;;;10.95;;
67442;SDS011;54311;51.726;5.154;2023-03-15T06:27:11;12.70;;;11.43;;
67442;SDS011;54311;51.726;5.154;2023-03-15T06:29:36;13.30;;;10.20;;
67442;SDS011;54311;51.726;5.154;2023-03-15T06:32:02;11.38;;;10.27;;
67442;SDS011;54311;51.726;5.154;2023-03-15T06:34:27;11.73;;;10.52;;
67442;SDS011;54311;51.726;5.154;2023-03-15T06:36:53;17.88;;;10.77;;
67442;SDS011;54311;51.726;5.154;2023-03-15T06:39:18;10.70;;;9.70;;
67442;SDS011;54311;51.726;5.154;2023-03-15T06:41:44;12.80;;;10.35;;
67442;SDS011;54311;51.726;5.154;2023-03-15T06:44:09;10.60;;;9.70;;
67442;SDS011;54311;51.726;5.154;2023-03-15T06:46:35;9.95;;;9.02;;
67442;SDS011;54311;51.726;5.154;2023-03-15T06:49:00;10.15;;;9.18;;
67442;SDS011;54311;51.726;5.154;2023-03-15T06:51:26;9.68;;;8.55;;
67442;SDS011;54311;51.726;5.154;2023-03-15T06:53:51;9.52;;;8.57;;
67442;SDS011;54311;51.726;5.154;2023-03-15T06:56:16;9.65;;;8.73;;
67442;SDS011;54311;51.726;5.154;2023-03-15T06:58:42;9.88;;;8.98;;
67442;SDS011;54311;51.726;5.154;2023-03-15T07:01:10;10.15;;;9.18;;
67442;SDS011;54311;51.726;5.154;2023-03-15T07:03:36;9.82;;;8.82;;
67442;SDS011;54311;51.726;5.154;2023-03-15T07:06:01;9.05;;;8.35;;
67442;SDS011;54311;51.726;5.154;2023-03-15T07:08:27;12.40;;;8.00;;
67442;SDS011;54311;51.726;5.154;2023-03-15T07:10:52;15.75;;;8.20;;
67442;SDS011;54311;51.726;5.154;2023-03-15T07:13:18;8.88;;;8.18;;
67442;SDS011;54311;51.726;5.154;2023-03-15T07:15:43;8.98;;;8.00;;
67442;SDS011;54311;51.726;5.154;2023-03-15T07:18:09;8.65;;;7.95;;
67442;SDS011;54311;51.726;5.154;2023-03-15T07:20:35;8.75;;;8.10;;
67442;SDS011;54311;51.726;5.154;2023-03-15T07:23:00;9.25;;;8.00;;
67442;SDS011;54311;51.726;5.154;2023-03-15T07:25:26;7.78;;;6.82;;
67442;SDS011;54311;51.726;5.154;2023-03-15T07:27:51;7.43;;;6.70;;
67442;SDS011;54311;51.726;5.154;2023-03-15T07:30:17;8.02;;;7.28;;
67442;SDS011;54311;51.726;5.154;2023-03-15T07:32:43;6.97;;;6.38;;
67442;SDS011;54311;51.726;5.154;2023-03-15T07:35:09;6.95;;;6.50;;
67442;SDS011;54311;51.726;5.154;2023-03-15T07:37:34;6.82;;;6.40;;
67442;SDS011;54311;51.726;5.154;2023-03-15T07:39:59;9.80;;;6.18;;
67442;SDS011;54311;51.726;5.154;2023-03-15T07:42:33;7.47;;;6.00;;
67442;SDS011;54311;51.726;5.154;2023-03-15T07:45:03;6.50;;;6.00;;
67442;SDS011;54311;51.726;5.154;2023-03-15T07:47:29;9.05;;;5.60;;
67442;SDS011;54311;51.726;5.154;2023-03-15T07:49:55;8.60;;;5.53;;
67442;SDS011;54311;51.726;5.154;2023-03-15T07:52:20;6.45;;;5.75;;
67442;SDS011;54311;51.726;5.154;2023-03-15T07:54:46;7.75;;;5.20;;
67442;SDS011;54311;51.726;5.154;2023-03-15T07:57:11;8.75;;;5.25;;
67442;SDS011;54311;51.726;5.154;2023-03-15T07:59:37;5.45;;;4.95;;
67442;SDS011;54311;51.726;5.154;2023-03-15T08:02:02;6.57;;;5.72;;
67442;SDS011;54311;51.726;5.154;2023-03-15T08:04:28;7.45;;;5.20;;
67442;SDS011;54311;51.726;5.154;2023-03-15T08:06:53;10.80;;;4.93;;
67442;SDS011;54311;51.726;5.154;2023-03-15T08:09:18;5.53;;;4.85;;
67442;SDS011;54311;51.726;5.154;2023-03-15T08:11:44;7.63;;;5.25;;
67442;SDS011;54311;51.726;5.154;2023-03-15T08:14:09;5.70;;;5.15;;
67442;SDS011;54311;51.726;5.154;2023-03-15T08:16:34;14.18;;;5.47;;
67442;SDS011;54311;51.726;5.154;2023-03-15T08:19:00;7.85;;;5.50;;
67442;SDS011;54311;51.726;5.154;2023-03-15T08:21:25;5.80;;;4.90;;
67442;SDS011;54311;51.726;5.154;2023-03-15T08:23:50;6.15;;;5.32;;
67442;SDS011;54311;51.726;5.154;2023-03-15T08:26:16;7.75;;;5.45;;
67442;SDS011;54311;51.726;5.154;2023-03-15T08:28:41;5.82;;;5.30;;
67442;SDS011;54311;51.726;5.154;2023-03-15T08:31:07;5.40;;;4.90;;
67442;SDS011;54311;51.726;5.154;2023-03-15T08:33:33;7.40;;;6.35;;
67442;SDS011;54311;51.726;5.154;2023-03-15T08:35:58;5.95;;;4.88;;
67442;SDS011;54311;51.726;5.154;2023-03-15T08:38:24;7.32;;;4.82;;
67442;SDS011;54311;51.726;5.154;2023-03-15T08:40:54;8.00;;;5.20;;
67442;SDS011;54311;51.726;5.154;2023-03-15T08:43:20;6.32;;;5.30;;
67442;SDS011;54311;51.726;5.154;2023-03-15T08:45:46;14.93;;;5.03;;
67442;SDS011;54311;51.726;5.154;2023-03-15T08:48:12;9.15;;;4.47;;
67442;SDS011;54311;51.726;5.154;2023-03-15T08:50:38;7.28;;;4.90;;
67442;SDS011;54311;51.726;5.154;2023-03-15T08:53:03;8.00;;;5.60;;
67442;SDS011;54311;51.726;5.154;2023-03-15T08:55:29;11.65;;;5.03;;
67442;SDS011;54311;51.726;5.154;2023-03-15T08:57:54;9.30;;;4.50;;
67442;SDS011;54311;51.726;5.154;2023-03-15T09:00:20;7.82;;;4.63;;
67442;SDS011;54311;51.726;5.154;2023-03-15T09:02:47;8.27;;;4.80;;
67442;SDS011;54311;51.726;5.154;2023-03-15T09:05:13;4.50;;;4.15;;
67442;SDS011;54311;51.726;5.154;2023-03-15T09:07:39;10.40;;;4.97;;
67442;SDS011;54311;51.726;5.154;2023-03-15T09:10:06;11.18;;;4.95;;
67442;SDS011;54311;51.726;5.154;2023-03-15T09:12:33;6.45;;;4.82;;
67442;SDS011;54311;51.726;5.154;2023-03-15T09:14:58;9.35;;;4.55;;
67442;SDS011;54311;51.726;5.154;2023-03-15T09:17:23;6.22;;;4.38;;
67442;SDS011;54311;51.726;5.154;2023-03-15T09:19:50;7.82;;;4.22;;
67442;SDS011;54311;51.726;5.154;2023-03-15T09:22:16;7.95;;;4.18;;
67442;SDS011;54311;51.726;5.154;2023-03-15T09:24:41;8.35;;;4.57;;
67442;SDS011;54311;51.726;5.154;2023-03-15T09:27:07;11.63;;;4.35;;
67442;SDS011;54311;51.726;5.154;2023-03-15T09:29:32;11.35;;;4.13;;
67442;SDS011;54311;51.726;5.154;2023-03-15T09:31:58;4.93;;;4.00;;
67442;SDS011;54311;51.726;5.154;2023-03-15T09:34:25;6.65;;;4.10;;
67442;SDS011;54311;51.726;5.154;2023-03-15T09:36:51;9.40;;;4.38;;
67442;SDS011;54311;51.726;5.154;2023-03-15T09:39:18;10.93;;;4.63;;
67442;SDS011;54311;51.726;5.154;2023-03-15T09:41:46;11.60;;;4.28;;
67442;SDS011;54311;51.726;5.154;2023-03-15T09:44:15;8.45;;;4.07;;
67442;SDS011;54311;51.726;5.154;2023-03-15T09:49:44;11.13;;;4.15;;
67442;SDS011;54311;51.726;5.154;2023-03-15T09:52:44;9.70;;;3.72;;
67442;SDS011;54311;51.726;5.154;2023-03-15T09:55:16;5.45;;;4.53;;
67442;SDS011;54311;51.726;5.154;2023-03-15T10:00:21;5.15;;;3.97;;
67442;SDS011;54311;51.726;5.154;2023-03-15T10:02:54;11.05;;;4.38;;
67442;SDS011;54311;51.726;5.154;2023-03-15T10:05:25;7.30;;;3.72;;
67442;SDS011;54311;51.726;5.154;2023-03-15T10:07:56;7.45;;;4.10;;
67442;SDS011;54311;51.726;5.154;2023-03-15T10:10:22;11.38;;;4.32;;
67442;SDS011;54311;51.726;5.154;2023-03-15T10:13:02;9.68;;;4.20;;
67442;SDS011;54311;51.726;5.154;2023-03-15T10:15:34;5.70;;;3.80;;
67442;SDS011;54311;51.726;5.154;2023-03-15T10:18:14;10.18;;;4.28;;
67442;SDS011;54311;51.726;5.154;2023-03-15T10:23:52;10.38;;;4.28;;
67442;SDS011;54311;51.726;5.154;2023-03-15T10:26:20;7.70;;;4.40;;
67442;SDS011;54311;51.726;5.154;2023-03-15T10:28:48;6.63;;;4.55;;
67442;SDS011;54311;51.726;5.154;2023-03-15T10:31:15;5.45;;;4.20;;
67442;SDS011;54311;51.726;5.154;2023-03-15T10:33:44;12.55;;;4.35;;
67442;SDS011;54311;51.726;5.154;2023-03-15T10:36:18;6.07;;;4.18;;
67442;SDS011;54311;51.726;5.154;2023-03-15T10:38:45;9.77;;;3.60;;
67442;SDS011;54311;51.726;5.154;2023-03-15T10:41:13;8.80;;;4.10;;
67442;SDS011;54311;51.726;5.154;2023-03-15T10:43:39;12.07;;;4.28;;
67442;SDS011;54311;51.726;5.154;2023-03-15T10:48:32;8.02;;;4.00;;
67442;SDS011;54311;51.726;5.154;2023-03-15T10:53:57;10.35;;;3.88;;
67442;SDS011;54311;51.726;5.154;2023-03-15T10:56:25;7.97;;;3.88;;
67442;SDS011;54311;51.726;5.154;2023-03-15T10:58:53;7.05;;;3.63;;
67442;SDS011;54311;51.726;5.154;2023-03-15T11:01:27;7.80;;;3.67;;
67442;SDS011;54311;51.726;5.154;2023-03-15T11:04:12;8.35;;;3.75;;
67442;SDS011;54311;51.726;5.154;2023-03-15T11:06:47;8.65;;;4.57;;
67442;SDS011;54311;51.726;5.154;2023-03-15T11:09:21;5.10;;;3.47;;
67442;SDS011;54311;51.726;5.154;2023-03-15T11:11:51;7.82;;;3.80;;
67442;SDS011;54311;51.726;5.154;2023-03-15T11:14:37;6.50;;;3.72;;
67442;SDS011;54311;51.726;5.154;2023-03-15T11:17:06;6.57;;;4.30;;
67442;SDS011;54311;51.726;5.154;2023-03-15T11:19:35;4.35;;;3.38;;
67442;SDS011;54311;51.726;5.154;2023-03-15T11:22:07;3.30;;;3.10;;
67442;SDS011;54311;51.726;5.154;2023-03-15T11:24:35;3.92;;;3.40;;
67442;SDS011;54311;51.726;5.154;2023-03-15T11:27:02;4.97;;;3.10;;
67442;SDS011;54311;51.726;5.154;2023-03-15T11:29:31;5.35;;;3.67;;
67442;SDS011;54311;51.726;5.154;2023-03-15T11:32:02;7.28;;;3.60;;
67442;SDS011;54311;51.726;5.154;2023-03-15T11:34:36;5.15;;;3.30;;
67442;SDS011;54311;51.726;5.154;2023-03-15T11:37:26;4.28;;;3.47;;
67442;SDS011;54311;51.726;5.154;2023-03-15T11:40:15;4.45;;;3.08;;
67442;SDS011;54311;51.726;5.154;2023-03-15T11:47:57;6.35;;;3.25;;
67442;SDS011;54311;51.726;5.154;2023-03-15T11:50:25;3.75;;;3.38;;
67442;SDS011;54311;51.726;5.154;2023-03-15T11:52:51;8.65;;;3.55;;
67442;SDS011;54311;51.726;5.154;2023-03-15T11:55:24;5.03;;;3.10;;
67442;SDS011;54311;51.726;5.154;2023-03-15T11:57:51;7.25;;;3.50;;
67442;SDS011;54311;51.726;5.154;2023-03-15T12:02:51;6.07;;;4.13;;
67442;SDS011;54311;51.726;5.154;2023-03-15T12:10:49;5.18;;;3.70;;
67442;SDS011;54311;51.726;5.154;2023-03-15T12:13:18;5.30;;;3.25;;
67442;SDS011;54311;51.726;5.154;2023-03-15T12:15:47;9.88;;;4.22;;
67442;SDS011;54311;51.726;5.154;2023-03-15T12:18:13;6.40;;;3.78;;
67442;SDS011;54311;51.726;5.154;2023-03-15T12:20:44;5.30;;;3.80;;
67442;SDS011;54311;51.726;5.154;2023-03-15T12:30:56;12.82;;;3.85;;
67442;SDS011;54311;51.726;5.154;2023-03-15T12:33:23;3.90;;;3.60;;
67442;SDS011;54311;51.726;5.154;2023-03-15T12:35:49;4.50;;;3.42;;
67442;SDS011;54311;51.726;5.154;2023-03-15T12:38:16;5.22;;;3.45;;
67442;SDS011;54311;51.726;5.154;2023-03-15T12:40:48;4.22;;;3.72;;
67442;SDS011;54311;51.726;5.154;2023-03-15T12:43:33;7.53;;;3.97;;
67442;SDS011;54311;51.726;5.154;2023-03-15T12:46:03;5.43;;;3.53;;
67442;SDS011;54311;51.726;5.154;2023-03-15T12:48:30;5.90;;;3.53;;
67442;SDS011;54311;51.726;5.154;2023-03-15T12:50:57;6.38;;;3.72;;
67442;SDS011;54311;51.726;5.154;2023-03-15T12:56:11;7.40;;;3.42;;
67442;SDS011;54311;51.726;5.154;2023-03-15T12:58:41;4.72;;;3.42;;
67442;SDS011;54311;51.726;5.154;2023-03-15T13:01:08;4.97;;;3.40;;
67442;SDS011;54311;51.726;5.154;2023-03-15T13:03:40;3.95;;;3.60;;
67442;SDS011;54311;51.726;5.154;2023-03-15T13:11:17;5.15;;;4.15;;
67442;SDS011;54311;51.726;5.154;2023-03-15T13:14:19;5.05;;;3.22;;
67442;SDS011;54311;51.726;5.154;2023-03-15T13:19:23;5.07;;;3.58;;
67442;SDS011;54311;51.726;5.154;2023-03-15T13:21:52;4.13;;;3.67;;
67442;SDS011;54311;51.726;5.154;2023-03-15T13:27:44;10.25;;;3.28;;
67442;SDS011;54311;51.726;5.154;2023-03-15T13:35:32;5.80;;;4.07;;
67442;SDS011;54311;51.726;5.154;2023-03-15T13:38:08;6.68;;;3.50;;
67442;SDS011;54311;51.726;5.154;2023-03-15T13:40:48;5.15;;;3.65;;
67442;SDS011;54311;51.726;5.154;2023-03-15T13:43:14;8.25;;;3.28;;
67442;SDS011;54311;51.726;5.154;2023-03-15T13:45:43;4.35;;;3.53;;
67442;SDS011;54311;51.726;5.154;2023-03-15T13:48:08;3.60;;;3.30;;
67442;SDS011;54311;51.726;5.154;2023-03-15T13:50:34;4.85;;;3.88;;
67442;SDS011;54311;51.726;5.154;2023-03-15T13:53:00;3.88;;;3.40;;
67442;SDS011;54311;51.726;5.154;2023-03-15T13:55:27;4.18;;;3.75;;
67442;SDS011;54311;51.726;5.154;2023-03-15T13:57:56;4.57;;;3.15;;
67442;SDS011;54311;51.726;5.154;2023-03-15T14:00:24;4.32;;;3.42;;
67442;SDS011;54311;51.726;5.154;2023-03-15T14:02:52;4.47;;;3.60;;
67442;SDS011;54311;51.726;5.154;2023-03-15T14:05:24;4.57;;;3.53;;
67442;SDS011;54311;51.726;5.154;2023-03-15T14:07:55;6.13;;;3.90;;
67442;SDS011;54311;51.726;5.154;2023-03-15T14:10:38;3.53;;;3.25;;
67442;SDS011;54311;51.726;5.154;2023-03-15T14:15:48;5.47;;;3.63;;
67442;SDS011;54311;51.726;5.154;2023-03-15T14:18:16;4.05;;;3.75;;
67442;SDS011;54311;51.726;5.154;2023-03-15T14:20:46;3.20;;;3.00;;
67442;SDS011;54311;51.726;5.154;2023-03-15T14:23:18;3.75;;;3.45;;
67442;SDS011;54311;51.726;5.154;2023-03-15T14:25:50;3.70;;;3.40;;
67442;SDS011;54311;51.726;5.154;2023-03-15T14:28:17;4.32;;;3.17;;
67442;SDS011;54311;51.726;5.154;2023-03-15T14:30:42;6.00;;;3.08;;
67442;SDS011;54311;51.726;5.154;2023-03-15T14:36:03;3.67;;;3.40;;
67442;SDS011;54311;51.726;5.154;2023-03-15T14:38:34;4.18;;;2.97;;
67442;SDS011;54311;51.726;5.154;2023-03-15T14:43:57;3.25;;;3.05;;
67442;SDS011;54311;51.726;5.154;2023-03-15T14:46:27;4.13;;;3.83;;
67442;SDS011;54311;51.726;5.154;2023-03-15T14:48:54;3.80;;;3.22;;
67442;SDS011;54311;51.726;5.154;2023-03-15T14:51:20;3.63;;;3.33;;
67442;SDS011;54311;51.726;5.154;2023-03-15T14:53:47;4.18;;;3.28;;
67442;SDS011;54311;51.726;5.154;2023-03-15T14:56:15;4.30;;;3.60;;
67442;SDS011;54311;51.726;5.154;2023-03-15T14:58:40;3.72;;;3.53;;
67442;SDS011;54311;51.726;5.154;2023-03-15T15:01:08;3.42;;;3.20;;
67442;SDS011;54311;51.726;5.154;2023-03-15T15:03:38;3.35;;;3.22;;
67442;SDS011;54311;51.726;5.154;2023-03-15T15:06:06;5.50;;;4.15;;
67442;SDS011;54311;51.726;5.154;2023-03-15T15:08:33;5.00;;;4.68;;
67442;SDS011;54311;51.726;5.154;2023-03-15T15:11:02;7.28;;;5.30;;
67442;SDS011;54311;51.726;5.154;2023-03-15T15:13:29;5.00;;;4.63;;
67442;SDS011;54311;51.726;5.154;2023-03-15T15:15:55;5.85;;;4.40;;
67442;SDS011;54311;51.726;5.154;2023-03-15T15:18:24;5.18;;;4.10;;
67442;SDS011;54311;51.726;5.154;2023-03-15T15:20:52;4.60;;;4.30;;
67442;SDS011;54311;51.726;5.154;2023-03-15T15:23:23;5.10;;;4.80;;
67442;SDS011;54311;51.726;5.154;2023-03-15T15:25:52;5.03;;;4.50;;
67442;SDS011;54311;51.726;5.154;2023-03-15T15:28:20;4.55;;;4.15;;
67442;SDS011;54311;51.726;5.154;2023-03-15T15:30:45;4.28;;;4.07;;
67442;SDS011;54311;51.726;5.154;2023-03-15T15:33:11;4.70;;;4.47;;
67442;SDS011;54311;51.726;5.154;2023-03-15T15:35:36;4.55;;;4.25;;
67442;SDS011;54311;51.726;5.154;2023-03-15T15:38:04;4.60;;;4.40;;
67442;SDS011;54311;51.726;5.154;2023-03-15T15:40:33;4.75;;;4.45;;
67442;SDS011;54311;51.726;5.154;2023-03-15T15:42:58;7.43;;;4.95;;
67442;SDS011;54311;51.726;5.154;2023-03-15T15:45:24;4.97;;;4.60;;
67442;SDS011;54311;51.726;5.154;2023-03-15T15:47:50;5.03;;;4.72;;
67442;SDS011;54311;51.726;5.154;2023-03-15T15:50:16;4.90;;;4.60;;
67442;SDS011;54311;51.726;5.154;2023-03-15T15:52:44;4.53;;;4.13;;
67442;SDS011;54311;51.726;5.154;2023-03-15T15:55:11;4.43;;;4.00;;
67442;SDS011;54311;51.726;5.154;2023-03-15T15:57:38;4.50;;;4.25;;
67442;SDS011;54311;51.726;5.154;2023-03-15T16:00:05;6.60;;;4.80;;